sensor_id;sensor_type;location;lat;lon;timestamp;temperature;humidity
13960;DHT22;7052;51.050;3.716;2023-04-25T00:01:15;9.30;99.90
13960;DHT22;7052;51.050;3.716;2023-04-25T00:03:42;9.30;99.90
13960;DHT22;7052;51.050;3.716;2023-04-25T00:06:13;9.30;99.90
13960;DHT22;7052;51.050;3.716;2023-04-25T00:08:40;9.30;99.90
13960;DHT22;7052;51.050;3.716;2023-04-25T00:11:07;9.30;99.90
13960;DHT22;7052;51.050;3.716;2023-04-25T00:13:36;9.30;99.90
13960;DHT22;7052;51.050;3.716;2023-04-25T00:16:07;9.30;99.90
13960;DHT22;7052;51.050;3.716;2023-04-25T00:18:35;9.30;99.90
13960;DHT22;7052;51.050;3.716;2023-04-25T00:21:02;9.30;99.90
13960;DHT22;7052;51.050;3.716;2023-04-25T00:23:31;9.30;99.90
13960;DHT22;7052;51.050;3.716;2023-04-25T00:25:58;9.30;99.90
13960;DHT22;7052;51.050;3.716;2023-04-25T00:28:25;9.20;99.90
13960;DHT22;7052;51.050;3.716;2023-04-25T00:30:52;9.20;99.90
13960;DHT22;7052;51.050;3.716;2023-04-25T00:33:22;9.30;99.90
13960;DHT22;7052;51.050;3.716;2023-04-25T00:35:54;9.20;99.90
13960;DHT22;7052;51.050;3.716;2023-04-25T00:38:24;9.10;99.90
13960;DHT22;7052;51.050;3.716;2023-04-25T00:40:51;9.10;99.90
13960;DHT22;7052;51.050;3.716;2023-04-25T00:43:18;9.10;99.90
13960;DHT22;7052;51.050;3.716;2023-04-25T00:45:47;9.00;99.90
13960;DHT22;7052;51.050;3.716;2023-04-25T00:48:18;9.10;99.90
13960;DHT22;7052;51.050;3.716;2023-04-25T00:50:51;9.00;99.90
13960;DHT22;7052;51.050;3.716;2023-04-25T00:53:20;9.10;99.90
13960;DHT22;7052;51.050;3.716;2023-04-25T00:55:51;9.00;99.90
13960;DHT22;7052;51.050;3.716;2023-04-25T00:58:18;9.00;99.90
13960;DHT22;7052;51.050;3.716;2023-04-25T01:00:47;9.00;99.90
13960;DHT22;7052;51.050;3.716;2023-04-25T01:03:16;9.10;99.90
13960;DHT22;7052;51.050;3.716;2023-04-25T01:05:45;9.00;99.90
13960;DHT22;7052;51.050;3.716;2023-04-25T01:08:13;8.90;99.90
13960;DHT22;7052;51.050;3.716;2023-04-25T01:10:44;9.00;99.90
13960;DHT22;7052;51.050;3.716;2023-04-25T01:13:11;9.00;99.90
13960;DHT22;7052;51.050;3.716;2023-04-25T01:15:39;9.00;99.90
13960;DHT22;7052;51.050;3.716;2023-04-25T01:18:07;9.00;99.90
13960;DHT22;7052;51.050;3.716;2023-04-25T01:20:36;8.90;99.90
13960;DHT22;7052;51.050;3.716;2023-04-25T01:23:05;8.90;99.90
13960;DHT22;7052;51.050;3.716;2023-04-25T01:25:35;8.90;99.90
13960;DHT22;7052;51.050;3.716;2023-04-25T01:28:02;8.90;99.90
13960;DHT22;7052;51.050;3.716;2023-04-25T01:30:30;8.90;99.90
13960;DHT22;7052;51.050;3.716;2023-04-25T01:32:59;8.80;99.90
13960;DHT22;7052;51.050;3.716;2023-04-25T01:35:29;8.80;99.90
13960;DHT22;7052;51.050;3.716;2023-04-25T01:37:57;8.80;99.90
13960;DHT22;7052;51.050;3.716;2023-04-25T01:40:30;8.80;99.90
13960;DHT22;7052;51.050;3.716;2023-04-25T01:42:58;8.70;99.90
13960;DHT22;7052;51.050;3.716;2023-04-25T01:45:25;8.70;99.90
13960;DHT22;7052;51.050;3.716;2023-04-25T01:47:53;8.70;99.90
13960;DHT22;7052;51.050;3.716;2023-04-25T01:50:27;8.70;99.90
13960;DHT22;7052;51.050;3.716;2023-04-25T01:52:55;8.60;99.90
13960;DHT22;7052;51.050;3.716;2023-04-25T01:55:23;8.60;99.90
13960;DHT22;7052;51.050;3.716;2023-04-25T01:58:01;8.60;99.90
13960;DHT22;7052;51.050;3.716;2023-04-25T02:00:41;8.60;99.90
13960;DHT22;7052;51.050;3.716;2023-04-25T02:03:10;8.60;99.90
13960;DHT22;7052;51.050;3.716;2023-04-25T02:05:40;8.50;99.90
13960;DHT22;7052;51.050;3.716;2023-04-25T02:08:11;8.50;99.90
13960;DHT22;7052;51.050;3.716;2023-04-25T02:10:44;8.50;99.90
13960;DHT22;7052;51.050;3.716;2023-04-25T02:13:14;8.50;99.90
13960;DHT22;7052;51.050;3.716;2023-04-25T02:15:41;8.50;99.90
13960;DHT22;7052;51.050;3.716;2023-04-25T02:18:08;8.40;99.90
13960;DHT22;7052;51.050;3.716;2023-04-25T02:20:38;8.40;99.90
13960;DHT22;7052;51.050;3.716;2023-04-25T02:23:05;8.40;99.90
13960;DHT22;7052;51.050;3.716;2023-04-25T02:25:33;8.40;99.90
13960;DHT22;7052;51.050;3.716;2023-04-25T02:28:06;8.40;99.90
13960;DHT22;7052;51.050;3.716;2023-04-25T02:30:48;8.40;99.90
13960;DHT22;7052;51.050;3.716;2023-04-25T02:33:15;8.40;99.90
13960;DHT22;7052;51.050;3.716;2023-04-25T02:35:43;8.40;99.90
13960;DHT22;7052;51.050;3.716;2023-04-25T02:38:25;8.40;99.90
13960;DHT22;7052;51.050;3.716;2023-04-25T02:41:26;8.40;99.90
13960;DHT22;7052;51.050;3.716;2023-04-25T02:43:53;8.40;99.90
13960;DHT22;7052;51.050;3.716;2023-04-25T02:46:22;8.40;99.90
13960;DHT22;7052;51.050;3.716;2023-04-25T02:48:50;8.30;99.90
13960;DHT22;7052;51.050;3.716;2023-04-25T02:51:17;8.30;99.90
13960;DHT22;7052;51.050;3.716;2023-04-25T02:53:45;8.30;99.90
13960;DHT22;7052;51.050;3.716;2023-04-25T02:56:12;8.30;99.90
13960;DHT22;7052;51.050;3.716;2023-04-25T02:58:42;8.20;99.90
13960;DHT22;7052;51.050;3.716;2023-04-25T03:01:17;8.20;99.90
13960;DHT22;7052;51.050;3.716;2023-04-25T03:03:49;8.20;99.90
13960;DHT22;7052;51.050;3.716;2023-04-25T03:06:20;8.20;99.90
13960;DHT22;7052;51.050;3.716;2023-04-25T03:08:47;8.20;99.90
13960;DHT22;7052;51.050;3.716;2023-04-25T03:11:19;8.20;99.90
13960;DHT22;7052;51.050;3.716;2023-04-25T03:13:55;8.20;99.90
13960;DHT22;7052;51.050;3.716;2023-04-25T03:16:24;8.20;99.90
13960;DHT22;7052;51.050;3.716;2023-04-25T03:18:54;8.10;99.90
13960;DHT22;7052;51.050;3.716;2023-04-25T03:21:32;8.10;99.90
13960;DHT22;7052;51.050;3.716;2023-04-25T03:24:18;8.10;99.90
13960;DHT22;7052;51.050;3.716;2023-04-25T03:26:49;8.10;99.90
13960;DHT22;7052;51.050;3.716;2023-04-25T03:29:18;8.00;99.90
13960;DHT22;7052;51.050;3.716;2023-04-25T03:32:05;8.00;99.90
13960;DHT22;7052;51.050;3.716;2023-04-25T03:34:38;8.00;99.90
13960;DHT22;7052;51.050;3.716;2023-04-25T03:37:07;8.00;99.90
13960;DHT22;7052;51.050;3.716;2023-04-25T03:39:48;7.90;99.90
13960;DHT22;7052;51.050;3.716;2023-04-25T03:42:28;8.00;99.90
13960;DHT22;7052;51.050;3.716;2023-04-25T03:44:55;7.90;99.90
13960;DHT22;7052;51.050;3.716;2023-04-25T03:47:26;7.90;99.90
13960;DHT22;7052;51.050;3.716;2023-04-25T03:49:56;7.90;99.90
13960;DHT22;7052;51.050;3.716;2023-04-25T03:52:23;7.80;99.90
13960;DHT22;7052;51.050;3.716;2023-04-25T03:54:51;7.80;99.90
13960;DHT22;7052;51.050;3.716;2023-04-25T03:57:20;7.80;99.90
13960;DHT22;7052;51.050;3.716;2023-04-25T03:59:47;7.80;99.90
13960;DHT22;7052;51.050;3.716;2023-04-25T04:02:14;7.80;99.90
13960;DHT22;7052;51.050;3.716;2023-04-25T04:04:41;7.80;99.90
13960;DHT22;7052;51.050;3.716;2023-04-25T04:07:11;7.80;99.90
13960;DHT22;7052;51.050;3.716;2023-04-25T04:09:38;7.80;99.90
13960;DHT22;7052;51.050;3.716;2023-04-25T04:12:06;7.80;99.90
13960;DHT22;7052;51.050;3.716;2023-04-25T04:14:34;7.80;99.90
13960;DHT22;7052;51.050;3.716;2023-04-25T04:17:09;7.80;99.90
13960;DHT22;7052;51.050;3.716;2023-04-25T04:19:38;7.80;99.90
13960;DHT22;7052;51.050;3.716;2023-04-25T04:22:06;7.80;99.90
13960;DHT22;7052;51.050;3.716;2023-04-25T04:24:38;7.80;99.90
13960;DHT22;7052;51.050;3.716;2023-04-25T04:27:06;7.80;99.90
13960;DHT22;7052;51.050;3.716;2023-04-25T04:29:35;7.80;99.90
13960;DHT22;7052;51.050;3.716;2023-04-25T04:32:05;7.80;99.90
13960;DHT22;7052;51.050;3.716;2023-04-25T04:34:34;7.80;99.90
13960;DHT22;7052;51.050;3.716;2023-04-25T04:37:02;7.80;99.90
13960;DHT22;7052;51.050;3.716;2023-04-25T04:39:29;7.80;99.90
13960;DHT22;7052;51.050;3.716;2023-04-25T04:42:00;7.80;99.90
13960;DHT22;7052;51.050;3.716;2023-04-25T04:44:29;7.80;99.90
13960;DHT22;7052;51.050;3.716;2023-04-25T04:46:58;7.80;99.90
13960;DHT22;7052;51.050;3.716;2023-04-25T04:49:25;7.80;99.90
13960;DHT22;7052;51.050;3.716;2023-04-25T04:51:53;7.80;99.90
13960;DHT22;7052;51.050;3.716;2023-04-25T04:54:21;7.80;99.90
13960;DHT22;7052;51.050;3.716;2023-04-25T04:56:48;7.70;99.90
13960;DHT22;7052;51.050;3.716;2023-04-25T04:59:21;7.70;99.90
13960;DHT22;7052;51.050;3.716;2023-04-25T05:01:52;7.70;99.90
13960;DHT22;7052;51.050;3.716;2023-04-25T05:04:21;7.70;99.90
13960;DHT22;7052;51.050;3.716;2023-04-25T05:06:49;7.70;99.90
13960;DHT22;7052;51.050;3.716;2023-04-25T05:09:19;7.70;99.90
13960;DHT22;7052;51.050;3.716;2023-04-25T05:11:51;7.70;99.90
13960;DHT22;7052;51.050;3.716;2023-04-25T05:14:31;7.70;99.90
13960;DHT22;7052;51.050;3.716;2023-04-25T05:16:58;7.70;99.90
13960;DHT22;7052;51.050;3.716;2023-04-25T05:19:25;7.80;99.90
13960;DHT22;7052;51.050;3.716;2023-04-25T05:21:53;7.80;99.90
13960;DHT22;7052;51.050;3.716;2023-04-25T05:24:21;7.90;99.90
13960;DHT22;7052;51.050;3.716;2023-04-25T05:26:50;7.90;99.90
13960;DHT22;7052;51.050;3.716;2023-04-25T05:29:18;8.00;99.90
13960;DHT22;7052;51.050;3.716;2023-04-25T05:31:47;8.00;99.90
13960;DHT22;7052;51.050;3.716;2023-04-25T05:34:16;8.10;99.90
13960;DHT22;7052;51.050;3.716;2023-04-25T05:36:43;8.10;99.90
13960;DHT22;7052;51.050;3.716;2023-04-25T05:39:10;8.10;99.90
13960;DHT22;7052;51.050;3.716;2023-04-25T05:41:39;8.10;99.90
13960;DHT22;7052;51.050;3.716;2023-04-25T05:44:06;8.10;99.90
13960;DHT22;7052;51.050;3.716;2023-04-25T05:46:35;8.20;99.90
13960;DHT22;7052;51.050;3.716;2023-04-25T05:49:03;8.20;99.90
13960;DHT22;7052;51.050;3.716;2023-04-25T05:51:31;8.30;99.80
13960;DHT22;7052;51.050;3.716;2023-04-25T05:53:58;8.30;99.80
13960;DHT22;7052;51.050;3.716;2023-04-25T05:56:25;8.30;99.50
13960;DHT22;7052;51.050;3.716;2023-04-25T05:58:54;8.30;98.60
13960;DHT22;7052;51.050;3.716;2023-04-25T06:01:22;8.30;98.70
13960;DHT22;7052;51.050;3.716;2023-04-25T06:03:50;8.40;98.60
13960;DHT22;7052;51.050;3.716;2023-04-25T06:06:19;8.40;98.30
13960;DHT22;7052;51.050;3.716;2023-04-25T06:08:46;8.40;97.90
13960;DHT22;7052;51.050;3.716;2023-04-25T06:11:17;8.40;98.10
13960;DHT22;7052;51.050;3.716;2023-04-25T06:13:44;8.40;97.60
13960;DHT22;7052;51.050;3.716;2023-04-25T06:16:11;8.50;97.60
13960;DHT22;7052;51.050;3.716;2023-04-25T06:18:41;8.60;97.40
13960;DHT22;7052;51.050;3.716;2023-04-25T06:21:08;8.70;97.00
13960;DHT22;7052;51.050;3.716;2023-04-25T06:23:36;8.60;96.50
13960;DHT22;7052;51.050;3.716;2023-04-25T06:26:03;8.70;96.50
13960;DHT22;7052;51.050;3.716;2023-04-25T06:28:31;8.70;96.30
13960;DHT22;7052;51.050;3.716;2023-04-25T06:30:57;8.80;95.90
13960;DHT22;7052;51.050;3.716;2023-04-25T06:33:34;8.80;95.10
13960;DHT22;7052;51.050;3.716;2023-04-25T06:36:03;8.80;95.50
13960;DHT22;7052;51.050;3.716;2023-04-25T06:38:42;8.90;95.60
13960;DHT22;7052;51.050;3.716;2023-04-25T06:41:09;8.90;95.10
13960;DHT22;7052;51.050;3.716;2023-04-25T06:43:46;8.90;94.30
13960;DHT22;7052;51.050;3.716;2023-04-25T06:46:14;8.90;94.30
13960;DHT22;7052;51.050;3.716;2023-04-25T06:48:42;8.90;94.10
13960;DHT22;7052;51.050;3.716;2023-04-25T06:51:10;8.90;93.80
13960;DHT22;7052;51.050;3.716;2023-04-25T06:53:40;8.90;94.20
13960;DHT22;7052;51.050;3.716;2023-04-25T06:56:07;8.90;94.00
13960;DHT22;7052;51.050;3.716;2023-04-25T06:58:35;9.00;93.50
13960;DHT22;7052;51.050;3.716;2023-04-25T07:01:03;9.00;92.80
13960;DHT22;7052;51.050;3.716;2023-04-25T07:03:31;9.00;93.00
13960;DHT22;7052;51.050;3.716;2023-04-25T07:05:59;9.10;93.10
13960;DHT22;7052;51.050;3.716;2023-04-25T07:08:26;9.20;92.80
13960;DHT22;7052;51.050;3.716;2023-04-25T07:10:56;9.30;92.20
13960;DHT22;7052;51.050;3.716;2023-04-25T07:13:23;9.30;92.50
13960;DHT22;7052;51.050;3.716;2023-04-25T07:15:50;9.40;93.30
13960;DHT22;7052;51.050;3.716;2023-04-25T07:18:18;9.80;92.20
13960;DHT22;7052;51.050;3.716;2023-04-25T07:20:45;10.10;90.80
13960;DHT22;7052;51.050;3.716;2023-04-25T07:23:13;10.60;90.00
13960;DHT22;7052;51.050;3.716;2023-04-25T07:25:41;10.90;80.50
13960;DHT22;7052;51.050;3.716;2023-04-25T07:28:09;11.00;79.00
13960;DHT22;7052;51.050;3.716;2023-04-25T07:30:42;10.80;76.60
13960;DHT22;7052;51.050;3.716;2023-04-25T07:33:10;10.70;77.90
13960;DHT22;7052;51.050;3.716;2023-04-25T07:35:38;10.60;78.00
13960;DHT22;7052;51.050;3.716;2023-04-25T07:38:06;10.40;76.30
13960;DHT22;7052;51.050;3.716;2023-04-25T07:40:33;10.30;77.20
13960;DHT22;7052;51.050;3.716;2023-04-25T07:43:03;10.40;79.50
13960;DHT22;7052;51.050;3.716;2023-04-25T07:45:35;10.40;77.90
13960;DHT22;7052;51.050;3.716;2023-04-25T07:48:03;10.40;74.30
13960;DHT22;7052;51.050;3.716;2023-04-25T07:50:31;10.50;74.20
13960;DHT22;7052;51.050;3.716;2023-04-25T07:53:00;10.50;69.70
13960;DHT22;7052;51.050;3.716;2023-04-25T07:55:28;10.50;69.20
13960;DHT22;7052;51.050;3.716;2023-04-25T07:57:55;10.60;66.20
13960;DHT22;7052;51.050;3.716;2023-04-25T08:00:23;10.60;65.50
13960;DHT22;7052;51.050;3.716;2023-04-25T08:02:53;10.80;68.40
13960;DHT22;7052;51.050;3.716;2023-04-25T08:05:22;11.10;68.80
13960;DHT22;7052;51.050;3.716;2023-04-25T08:07:51;11.30;67.40
13960;DHT22;7052;51.050;3.716;2023-04-25T08:10:19;11.40;63.60
13960;DHT22;7052;51.050;3.716;2023-04-25T08:12:46;11.40;60.90
13960;DHT22;7052;51.050;3.716;2023-04-25T08:15:14;11.30;61.10
13960;DHT22;7052;51.050;3.716;2023-04-25T08:17:41;11.20;63.30
13960;DHT22;7052;51.050;3.716;2023-04-25T08:20:12;11.00;64.50
13960;DHT22;7052;51.050;3.716;2023-04-25T08:22:42;10.90;67.40
13960;DHT22;7052;51.050;3.716;2023-04-25T08:25:10;10.80;68.00
13960;DHT22;7052;51.050;3.716;2023-04-25T08:27:38;10.80;69.50
13960;DHT22;7052;51.050;3.716;2023-04-25T08:30:07;10.80;67.40
13960;DHT22;7052;51.050;3.716;2023-04-25T08:32:36;10.80;66.70
13960;DHT22;7052;51.050;3.716;2023-04-25T08:35:07;11.00;64.20
13960;DHT22;7052;51.050;3.716;2023-04-25T08:37:35;11.00;59.10
13960;DHT22;7052;51.050;3.716;2023-04-25T08:40:06;11.10;59.90
13960;DHT22;7052;51.050;3.716;2023-04-25T08:42:37;11.20;59.20
13960;DHT22;7052;51.050;3.716;2023-04-25T08:45:06;11.20;53.70
13960;DHT22;7052;51.050;3.716;2023-04-25T08:47:34;11.10;52.40
13960;DHT22;7052;51.050;3.716;2023-04-25T08:50:04;10.90;53.20
13960;DHT22;7052;51.050;3.716;2023-04-25T08:52:43;10.90;55.10
13960;DHT22;7052;51.050;3.716;2023-04-25T08:55:12;10.80;54.30
13960;DHT22;7052;51.050;3.716;2023-04-25T08:57:47;10.90;56.00
13960;DHT22;7052;51.050;3.716;2023-04-25T09:00:16;11.20;57.00
13960;DHT22;7052;51.050;3.716;2023-04-25T09:02:43;11.50;52.60
13960;DHT22;7052;51.050;3.716;2023-04-25T09:05:12;11.70;52.30
13960;DHT22;7052;51.050;3.716;2023-04-25T09:07:43;11.70;52.00
13960;DHT22;7052;51.050;3.716;2023-04-25T09:10:11;11.70;51.40
13960;DHT22;7052;51.050;3.716;2023-04-25T09:12:42;11.50;51.90
13960;DHT22;7052;51.050;3.716;2023-04-25T09:15:11;11.30;54.20
13960;DHT22;7052;51.050;3.716;2023-04-25T09:17:41;11.10;66.90
13960;DHT22;7052;51.050;3.716;2023-04-25T09:20:14;10.80;75.40
13960;DHT22;7052;51.050;3.716;2023-04-25T09:22:46;10.60;82.10
13960;DHT22;7052;51.050;3.716;2023-04-25T09:25:13;10.40;85.90
13960;DHT22;7052;51.050;3.716;2023-04-25T09:27:49;10.20;87.00
13960;DHT22;7052;51.050;3.716;2023-04-25T09:30:18;10.10;89.00
13960;DHT22;7052;51.050;3.716;2023-04-25T09:32:47;10.00;88.90
13960;DHT22;7052;51.050;3.716;2023-04-25T09:35:24;10.00;88.80
13960;DHT22;7052;51.050;3.716;2023-04-25T09:37:54;10.00;85.50
13960;DHT22;7052;51.050;3.716;2023-04-25T09:40:21;10.00;83.80
13960;DHT22;7052;51.050;3.716;2023-04-25T09:42:48;10.00;83.90
13960;DHT22;7052;51.050;3.716;2023-04-25T09:45:16;10.00;81.30
13960;DHT22;7052;51.050;3.716;2023-04-25T09:47:44;10.20;80.30
13960;DHT22;7052;51.050;3.716;2023-04-25T09:50:15;10.50;77.50
13960;DHT22;7052;51.050;3.716;2023-04-25T09:52:45;11.00;72.60
13960;DHT22;7052;51.050;3.716;2023-04-25T09:55:14;11.50;64.10
13960;DHT22;7052;51.050;3.716;2023-04-25T09:57:41;11.70;61.50
13960;DHT22;7052;51.050;3.716;2023-04-25T10:00:11;11.90;59.80
13960;DHT22;7052;51.050;3.716;2023-04-25T10:02:39;12.00;58.80
13960;DHT22;7052;51.050;3.716;2023-04-25T10:05:10;12.10;57.90
13960;DHT22;7052;51.050;3.716;2023-04-25T10:07:40;12.10;56.50
13960;DHT22;7052;51.050;3.716;2023-04-25T10:10:09;12.10;56.80
13960;DHT22;7052;51.050;3.716;2023-04-25T10:12:42;12.00;56.80
13960;DHT22;7052;51.050;3.716;2023-04-25T10:15:14;12.00;56.20
13960;DHT22;7052;51.050;3.716;2023-04-25T10:17:42;11.80;56.00
13960;DHT22;7052;51.050;3.716;2023-04-25T10:20:11;11.70;56.40
13960;DHT22;7052;51.050;3.716;2023-04-25T10:22:41;11.60;57.20
13960;DHT22;7052;51.050;3.716;2023-04-25T10:25:12;11.50;57.40
13960;DHT22;7052;51.050;3.716;2023-04-25T10:27:42;11.50;58.50
13960;DHT22;7052;51.050;3.716;2023-04-25T10:30:10;11.30;57.60
13960;DHT22;7052;51.050;3.716;2023-04-25T10:32:38;11.20;58.30
13960;DHT22;7052;51.050;3.716;2023-04-25T10:35:15;11.10;60.50
13960;DHT22;7052;51.050;3.716;2023-04-25T10:38:00;11.20;63.50
13960;DHT22;7052;51.050;3.716;2023-04-25T10:41:03;11.30;64.80
13960;DHT22;7052;51.050;3.716;2023-04-25T10:43:36;11.50;66.80
13960;DHT22;7052;51.050;3.716;2023-04-25T10:46:16;11.80;62.50
13960;DHT22;7052;51.050;3.716;2023-04-25T10:48:48;11.80;61.80
13960;DHT22;7052;51.050;3.716;2023-04-25T10:51:22;11.90;61.40
13960;DHT22;7052;51.050;3.716;2023-04-25T10:53:58;12.00;62.30
13960;DHT22;7052;51.050;3.716;2023-04-25T10:56:27;12.10;59.70
13960;DHT22;7052;51.050;3.716;2023-04-25T10:59:05;12.20;56.90
13960;DHT22;7052;51.050;3.716;2023-04-25T11:01:44;12.30;56.70
13960;DHT22;7052;51.050;3.716;2023-04-25T11:04:21;12.40;55.30
13960;DHT22;7052;51.050;3.716;2023-04-25T11:07:09;12.60;55.80
13960;DHT22;7052;51.050;3.716;2023-04-25T11:09:40;12.60;54.10
13960;DHT22;7052;51.050;3.716;2023-04-25T11:12:11;12.70;53.50
13960;DHT22;7052;51.050;3.716;2023-04-25T11:14:40;12.70;50.90
13960;DHT22;7052;51.050;3.716;2023-04-25T11:17:08;12.70;50.80
13960;DHT22;7052;51.050;3.716;2023-04-25T11:19:36;12.80;50.60
13960;DHT22;7052;51.050;3.716;2023-04-25T11:22:05;12.80;51.20
13960;DHT22;7052;51.050;3.716;2023-04-25T11:24:34;12.80;51.50
13960;DHT22;7052;51.050;3.716;2023-04-25T11:27:05;12.90;50.60
13960;DHT22;7052;51.050;3.716;2023-04-25T11:29:33;12.80;50.60
13960;DHT22;7052;51.050;3.716;2023-04-25T11:32:07;12.70;49.00
13960;DHT22;7052;51.050;3.716;2023-04-25T11:34:36;12.70;48.00
13960;DHT22;7052;51.050;3.716;2023-04-25T11:37:03;12.60;46.50
13960;DHT22;7052;51.050;3.716;2023-04-25T11:39:31;12.60;48.00
13960;DHT22;7052;51.050;3.716;2023-04-25T11:41:59;12.50;49.10
13960;DHT22;7052;51.050;3.716;2023-04-25T11:44:26;12.50;50.10
13960;DHT22;7052;51.050;3.716;2023-04-25T11:46:56;12.50;50.70
13960;DHT22;7052;51.050;3.716;2023-04-25T11:49:31;12.50;51.70
13960;DHT22;7052;51.050;3.716;2023-04-25T11:51:59;12.60;52.30
13960;DHT22;7052;51.050;3.716;2023-04-25T11:54:26;12.80;51.70
13960;DHT22;7052;51.050;3.716;2023-04-25T11:56:54;13.00;51.00
13960;DHT22;7052;51.050;3.716;2023-04-25T11:59:25;13.30;50.80
13960;DHT22;7052;51.050;3.716;2023-04-25T12:01:52;13.30;48.70
13960;DHT22;7052;51.050;3.716;2023-04-25T12:04:26;13.00;46.80
13960;DHT22;7052;51.050;3.716;2023-04-25T12:06:58;12.80;47.50
13960;DHT22;7052;51.050;3.716;2023-04-25T12:09:31;12.70;48.40
13960;DHT22;7052;51.050;3.716;2023-04-25T12:12:05;12.50;48.80
13960;DHT22;7052;51.050;3.716;2023-04-25T12:14:35;12.20;50.00
13960;DHT22;7052;51.050;3.716;2023-04-25T12:17:04;12.10;50.80
13960;DHT22;7052;51.050;3.716;2023-04-25T12:19:35;12.30;51.50
13960;DHT22;7052;51.050;3.716;2023-04-25T12:22:19;12.50;51.20
13960;DHT22;7052;51.050;3.716;2023-04-25T12:24:49;12.80;50.00
13960;DHT22;7052;51.050;3.716;2023-04-25T12:27:17;13.20;50.40
13960;DHT22;7052;51.050;3.716;2023-04-25T12:29:51;13.50;49.20
13960;DHT22;7052;51.050;3.716;2023-04-25T12:32:19;13.60;47.60
13960;DHT22;7052;51.050;3.716;2023-04-25T12:34:48;13.60;47.50
13960;DHT22;7052;51.050;3.716;2023-04-25T12:37:18;13.40;46.30
13960;DHT22;7052;51.050;3.716;2023-04-25T12:39:45;13.20;46.00
13960;DHT22;7052;51.050;3.716;2023-04-25T12:42:15;13.00;46.80
13960;DHT22;7052;51.050;3.716;2023-04-25T12:44:44;12.80;47.50
13960;DHT22;7052;51.050;3.716;2023-04-25T12:47:12;12.70;47.20
13960;DHT22;7052;51.050;3.716;2023-04-25T12:49:54;12.70;47.60
13960;DHT22;7052;51.050;3.716;2023-04-25T12:52:21;12.80;48.70
13960;DHT22;7052;51.050;3.716;2023-04-25T12:54:49;12.70;49.50
13960;DHT22;7052;51.050;3.716;2023-04-25T12:57:21;12.70;50.50
13960;DHT22;7052;51.050;3.716;2023-04-25T12:59:53;12.80;50.90
13960;DHT22;7052;51.050;3.716;2023-04-25T13:02:20;13.10;50.80
13960;DHT22;7052;51.050;3.716;2023-04-25T13:04:50;13.20;49.50
13960;DHT22;7052;51.050;3.716;2023-04-25T13:07:19;12.90;50.30
13960;DHT22;7052;51.050;3.716;2023-04-25T13:09:52;12.80;50.50
13960;DHT22;7052;51.050;3.716;2023-04-25T13:12:19;12.60;51.00
13960;DHT22;7052;51.050;3.716;2023-04-25T13:14:46;12.60;51.40
13960;DHT22;7052;51.050;3.716;2023-04-25T13:17:14;12.70;51.30
13960;DHT22;7052;51.050;3.716;2023-04-25T13:19:43;12.80;50.60
13960;DHT22;7052;51.050;3.716;2023-04-25T13:22:12;12.90;50.50
13960;DHT22;7052;51.050;3.716;2023-04-25T13:24:43;13.10;50.80
13960;DHT22;7052;51.050;3.716;2023-04-25T13:27:12;13.50;49.90
13960;DHT22;7052;51.050;3.716;2023-04-25T13:29:41;13.40;50.30
13960;DHT22;7052;51.050;3.716;2023-04-25T13:32:09;13.20;51.50
13960;DHT22;7052;51.050;3.716;2023-04-25T13:34:42;13.00;51.80
13960;DHT22;7052;51.050;3.716;2023-04-25T13:37:11;12.80;52.70
13960;DHT22;7052;51.050;3.716;2023-04-25T13:39:39;12.70;53.30
13960;DHT22;7052;51.050;3.716;2023-04-25T13:42:07;12.50;53.90
13960;DHT22;7052;51.050;3.716;2023-04-25T13:44:35;12.30;53.70
13960;DHT22;7052;51.050;3.716;2023-04-25T13:47:03;12.10;54.20
13960;DHT22;7052;51.050;3.716;2023-04-25T13:49:30;11.90;52.50
13960;DHT22;7052;51.050;3.716;2023-04-25T13:51:59;11.80;53.10
13960;DHT22;7052;51.050;3.716;2023-04-25T13:54:27;12.00;53.70
13960;DHT22;7052;51.050;3.716;2023-04-25T13:56:58;12.30;52.50
13960;DHT22;7052;51.050;3.716;2023-04-25T13:59:26;12.40;51.00
13960;DHT22;7052;51.050;3.716;2023-04-25T14:01:55;12.30;51.10
13960;DHT22;7052;51.050;3.716;2023-04-25T14:04:22;12.10;50.80
13960;DHT22;7052;51.050;3.716;2023-04-25T14:06:53;12.00;51.10
13960;DHT22;7052;51.050;3.716;2023-04-25T14:09:21;12.00;50.50
13960;DHT22;7052;51.050;3.716;2023-04-25T14:11:55;12.10;50.50
13960;DHT22;7052;51.050;3.716;2023-04-25T14:14:25;12.20;50.10
13960;DHT22;7052;51.050;3.716;2023-04-25T14:16:54;12.50;48.90
13960;DHT22;7052;51.050;3.716;2023-04-25T14:19:23;12.60;48.30
13960;DHT22;7052;51.050;3.716;2023-04-25T14:21:54;12.70;47.90
13960;DHT22;7052;51.050;3.716;2023-04-25T14:24:27;12.70;47.10
13960;DHT22;7052;51.050;3.716;2023-04-25T14:26:56;12.80;47.20
13960;DHT22;7052;51.050;3.716;2023-04-25T14:29:34;13.10;47.90
13960;DHT22;7052;51.050;3.716;2023-04-25T14:32:02;13.20;48.30
13960;DHT22;7052;51.050;3.716;2023-04-25T14:34:31;13.50;47.60
13960;DHT22;7052;51.050;3.716;2023-04-25T14:37:00;13.70;47.40
13960;DHT22;7052;51.050;3.716;2023-04-25T14:39:27;13.70;45.90
13960;DHT22;7052;51.050;3.716;2023-04-25T14:42:02;13.50;45.50
13960;DHT22;7052;51.050;3.716;2023-04-25T14:44:39;13.40;45.00
13960;DHT22;7052;51.050;3.716;2023-04-25T14:47:18;13.50;46.10
13960;DHT22;7052;51.050;3.716;2023-04-25T14:49:46;13.70;44.70
13960;DHT22;7052;51.050;3.716;2023-04-25T14:52:19;13.50;44.60
13960;DHT22;7052;51.050;3.716;2023-04-25T14:54:51;13.30;45.60
13960;DHT22;7052;51.050;3.716;2023-04-25T14:57:20;13.10;46.00
13960;DHT22;7052;51.050;3.716;2023-04-25T14:59:53;12.90;46.40
13960;DHT22;7052;51.050;3.716;2023-04-25T15:02:23;12.70;46.90
13960;DHT22;7052;51.050;3.716;2023-04-25T15:04:52;12.50;47.80
13960;DHT22;7052;51.050;3.716;2023-04-25T15:07:22;12.40;47.70
13960;DHT22;7052;51.050;3.716;2023-04-25T15:09:49;12.30;48.20
13960;DHT22;7052;51.050;3.716;2023-04-25T15:12:23;12.20;48.50
13960;DHT22;7052;51.050;3.716;2023-04-25T15:14:52;12.20;48.80
13960;DHT22;7052;51.050;3.716;2023-04-25T15:17:23;12.20;49.10
13960;DHT22;7052;51.050;3.716;2023-04-25T15:20:02;12.40;48.50
13960;DHT22;7052;51.050;3.716;2023-04-25T15:22:32;12.60;48.10
13960;DHT22;7052;51.050;3.716;2023-04-25T15:25:00;12.80;46.30
13960;DHT22;7052;51.050;3.716;2023-04-25T15:27:39;13.00;45.90
13960;DHT22;7052;51.050;3.716;2023-04-25T15:30:14;13.00;46.30
13960;DHT22;7052;51.050;3.716;2023-04-25T15:32:55;13.00;46.60
13960;DHT22;7052;51.050;3.716;2023-04-25T15:35:23;12.90;47.30
13960;DHT22;7052;51.050;3.716;2023-04-25T15:37:53;13.00;47.60
13960;DHT22;7052;51.050;3.716;2023-04-25T15:40:21;13.20;47.20
13960;DHT22;7052;51.050;3.716;2023-04-25T15:42:50;13.20;47.10
13960;DHT22;7052;51.050;3.716;2023-04-25T15:45:21;13.30;46.40
13960;DHT22;7052;51.050;3.716;2023-04-25T15:47:51;13.40;46.00
13960;DHT22;7052;51.050;3.716;2023-04-25T15:50:21;13.40;45.70
13960;DHT22;7052;51.050;3.716;2023-04-25T15:52:50;13.50;46.90
13960;DHT22;7052;51.050;3.716;2023-04-25T15:55:18;13.50;49.00
13960;DHT22;7052;51.050;3.716;2023-04-25T15:57:47;13.50;49.50
13960;DHT22;7052;51.050;3.716;2023-04-25T16:00:19;13.60;49.20
13960;DHT22;7052;51.050;3.716;2023-04-25T16:02:47;13.60;49.00
13960;DHT22;7052;51.050;3.716;2023-04-25T16:05:16;13.50;48.10
13960;DHT22;7052;51.050;3.716;2023-04-25T16:07:44;13.30;47.60
13960;DHT22;7052;51.050;3.716;2023-04-25T16:10:14;13.10;48.20